createdAt,value
2018-09-04T00:10:58.261Z,19.0
2018-09-04T00:27:44.707Z,18.7
2018-09-04T00:44:31.003Z,18.7
2018-09-04T01:01:17.350Z,18.7
2018-09-04T01:18:03.340Z,18.7
2018-09-04T01:34:49.062Z,18.7
2018-09-04T01:51:34.865Z,18.7
2018-09-04T02:08:21.178Z,18.4
2018-09-04T02:25:06.311Z,18.4
2018-09-04T02:41:52.036Z,18.4
2018-09-04T02:58:37.484Z,18.1
2018-09-04T03:15:23.151Z,18.1
2018-09-04T03:32:07.885Z,18.1
2018-09-04T03:48:53.299Z,18.1
2018-09-04T04:05:38.456Z,18.1
2018-09-04T04:22:23.718Z,18.1
2018-09-04T04:39:08.914Z,17.8
2018-09-04T04:55:54.082Z,17.8
2018-09-04T05:12:39.152Z,17.8
2018-09-04T05:29:24.378Z,18.1
2018-09-04T05:46:10.251Z,18.4
2018-09-04T06:02:55.803Z,18.7
2018-09-04T06:19:41.873Z,19.0
2018-09-04T06:36:28.623Z,19.4
2018-09-04T06:53:16.411Z,19.7
2018-09-04T07:10:03.062Z,19.7
2018-09-04T07:26:51.422Z,20.3
2018-09-04T07:43:38.312Z,20.3
2018-09-04T08:00:26.365Z,21.0
2018-09-04T08:17:14.908Z,21.3
2018-09-04T08:34:03.478Z,21.6
2018-09-04T08:50:52.431Z,22.2
2018-09-04T09:04:20.412Z,22.9
2018-09-04T09:11:04.213Z,23.5
2018-09-04T09:27:55.056Z,24.2
2018-09-04T09:58:15.816Z,24.5
2018-09-04T10:15:07.059Z,24.2
2018-09-04T10:25:13.779Z,24.8
2018-09-04T10:42:05.729Z,25.1
2018-09-04T10:58:58.022Z,25.4
2018-09-04T11:09:05.510Z,25.4
2018-09-04T11:25:57.945Z,25.8
2018-09-04T11:42:50.926Z,26.1
2018-09-04T12:06:29.521Z,26.7
2018-09-04T12:13:15.181Z,26.4
2018-09-04T12:26:45.853Z,26.4
2018-09-04T12:40:16.814Z,26.7
2018-09-04T12:57:10.455Z,27.0
2018-09-04T13:05:37.688Z,27.0
2018-09-04T13:22:31.853Z,27.0
2018-09-04T13:39:26.399Z,27.4
2018-09-04T13:44:30.988Z,27.4
2018-09-04T14:01:26.022Z,27.7
2018-09-04T14:18:21.359Z,27.7
2018-09-04T14:26:49.187Z,28.3
2018-09-04T14:43:45.601Z,28.6
2018-09-04T14:55:36.944Z,28.0
2018-09-04T14:57:18.533Z,27.7
2018-09-04T14:59:00.050Z,27.0
2018-09-04T15:14:11.917Z,25.4
2018-09-04T15:24:19.130Z,24.8
2018-09-04T15:41:11.116Z,25.1
2018-09-04T15:58:03.237Z,25.1
2018-09-04T16:14:55.799Z,25.4
2018-09-04T16:31:48.387Z,25.8
2018-09-04T17:05:33.508Z,25.1
2018-09-04T17:22:25.213Z,24.5
2018-09-04T17:39:16.608Z,24.2
2018-09-04T17:56:07.533Z,23.5
2018-09-04T18:12:58.036Z,23.2
2018-09-04T18:29:48.255Z,22.9
2018-09-04T18:46:38.162Z,22.6
2018-09-04T19:03:27.765Z,22.2
2018-09-04T19:20:17.182Z,22.2
2018-09-04T19:37:06.308Z,21.6
2018-09-04T19:53:54.961Z,21.3
2018-09-04T20:10:43.320Z,21.0
2018-09-04T20:27:31.794Z,20.6
2018-09-04T20:44:19.414Z,20.3
2018-09-04T21:01:06.871Z,20.0
2018-09-04T21:17:54.121Z,20.0
2018-09-04T21:51:28.364Z,19.7
2018-09-04T22:08:15.093Z,19.4
2018-09-04T22:25:01.800Z,19.0
2018-09-04T22:41:48.237Z,19.0
2018-09-04T22:58:34.537Z,18.7
2018-09-04T23:15:20.797Z,18.7
2018-09-04T23:32:06.728Z,18.4
2018-09-04T23:48:52.577Z,18.4
